Terminal Aerodrome Forecast
Issued by NWS

Home | Current Version | Previous Version | Text Only | Print | Product List | Glossary On
Versions: 1 2 3 4 5 6 7 8 9 10 11 12 13 14 15 16 17 18 19 20 21 22 23 24 25 26 27 28 29 30 31 32 33 34 35 36 37 38
000
FTUS44 KEWX 181358 AAA
TAFSSF
TAF AMD
KSSF 181358Z 1814/1912 35005KT P6SM -RA FEW007 BKN025 OVC035
     FM181600 34005KT P6SM BKN020 OVC060
     FM190600 VRB03KT P6SM SCT015
     FM191000 VRB02KT 2SM BR SCT005=

USA.gov is the U.S. government's official web portal to all federal, state and local government web resources and services.